createdAt,value
2023-01-25T00:00:41.214Z,88.00
2023-01-25T00:04:53.827Z,88.61
2023-01-25T00:09:06.206Z,87.82
2023-01-25T00:13:18.727Z,87.90
2023-01-25T00:17:31.125Z,87.88
2023-01-25T00:21:43.780Z,87.65
2023-01-25T00:25:59.318Z,88.31
2023-01-25T00:30:12.053Z,88.02
2023-01-25T00:34:24.404Z,87.58
2023-01-25T00:38:39.066Z,87.64
2023-01-25T00:42:51.413Z,86.26
2023-01-25T00:47:08.243Z,86.61
2023-01-25T00:51:20.677Z,85.97
2023-01-25T00:55:34.476Z,86.18
2023-01-25T00:59:47.805Z,86.95
2023-01-25T01:04:00.562Z,87.18
2023-01-25T01:08:18.268Z,85.48
2023-01-25T01:12:30.776Z,85.61
2023-01-25T01:16:43.270Z,86.22
2023-01-25T01:20:56.104Z,86.51
2023-01-25T01:25:09.576Z,87.13
2023-01-25T01:29:22.672Z,87.39
2023-01-25T01:33:36.264Z,87.45
2023-01-25T01:37:48.703Z,87.49
2023-01-25T01:42:02.441Z,87.45
2023-01-25T01:46:25.655Z,87.56
2023-01-25T01:50:38.267Z,88.01
2023-01-25T01:55:03.955Z,87.84
2023-01-25T01:59:25.627Z,88.17
2023-01-25T02:03:41.869Z,88.55
2023-01-25T02:07:56.380Z,88.30
2023-01-25T02:12:10.888Z,87.91
2023-01-25T02:16:26.647Z,88.54
2023-01-25T02:20:42.697Z,87.95
2023-01-25T02:25:19.143Z,87.85
2023-01-25T02:29:32.878Z,87.76
2023-01-25T02:33:46.226Z,88.03
2023-01-25T02:37:58.471Z,88.28
2023-01-25T02:42:10.614Z,87.87
2023-01-25T02:46:36.821Z,87.28
2023-01-25T02:50:49.211Z,85.10
2023-01-25T02:55:03.495Z,84.91
2023-01-25T02:59:17.148Z,85.48
2023-01-25T03:03:33.266Z,85.84
2023-01-25T03:07:48.745Z,86.60
2023-01-25T03:12:02.174Z,86.23
2023-01-25T03:16:16.160Z,85.82
2023-01-25T03:20:31.176Z,86.14
2023-01-25T03:24:43.420Z,85.95
2023-01-25T03:28:57.105Z,86.85
2023-01-25T03:33:13.440Z,86.69
2023-01-25T03:37:40.670Z,85.96
2023-01-25T03:41:56.483Z,85.02
2023-01-25T03:46:10.840Z,84.13
2023-01-25T03:50:24.770Z,83.04
2023-01-25T03:54:39.543Z,81.21
2023-01-25T03:58:53.951Z,80.01
2023-01-25T04:03:07.582Z,80.05
2023-01-25T04:07:20.692Z,81.22
2023-01-25T04:11:33.585Z,82.14
2023-01-25T04:15:45.907Z,82.29
2023-01-25T04:20:10.080Z,83.10
2023-01-25T04:24:25.473Z,84.26
2023-01-25T04:28:37.686Z,84.25
2023-01-25T04:32:51.054Z,84.46
2023-01-25T04:37:08.344Z,84.92
2023-01-25T04:41:30.981Z,85.63
2023-01-25T04:45:43.688Z,85.90
2023-01-25T04:50:04.604Z,85.82
2023-01-25T04:54:18.206Z,84.65
2023-01-25T04:58:30.401Z,84.19
2023-01-25T05:02:43.176Z,84.38
2023-01-25T05:06:55.415Z,84.26
2023-01-25T05:11:07.633Z,84.87
2023-01-25T05:15:34.268Z,84.44
2023-01-25T05:19:47.868Z,84.74
2023-01-25T05:24:02.868Z,84.07
2023-01-25T05:28:16.800Z,85.07
2023-01-25T05:32:50.537Z,85.23
2023-01-25T05:37:04.206Z,85.04
2023-01-25T05:41:16.704Z,84.24
2023-01-25T05:45:30.404Z,83.94
2023-01-25T05:49:44.180Z,84.56
2023-01-25T05:54:03.139Z,84.40
2023-01-25T05:58:15.426Z,83.47
2023-01-25T06:02:28.579Z,82.36
2023-01-25T06:06:40.909Z,82.30
2023-01-25T06:10:53.140Z,81.53
2023-01-25T06:15:05.834Z,81.00
2023-01-25T06:19:18.206Z,81.39
2023-01-25T06:23:50.520Z,81.00
2023-01-25T06:28:02.809Z,80.65
2023-01-25T06:32:15.002Z,78.99
2023-01-25T06:36:27.261Z,78.31
2023-01-25T06:40:39.465Z,77.14
2023-01-25T06:44:51.591Z,76.06
2023-01-25T06:49:03.806Z,75.69
2023-01-25T06:53:15.983Z,76.71
2023-01-25T06:57:29.608Z,70.28
2023-01-25T07:01:41.871Z,59.80
2023-01-25T07:06:05.668Z,65.36
2023-01-25T07:10:17.922Z,69.60
2023-01-25T07:14:30.116Z,63.30
2023-01-25T07:18:42.790Z,58.66
2023-01-25T07:23:06.117Z,55.16
2023-01-25T07:27:18.380Z,54.18
2023-01-25T07:31:30.925Z,53.18
2023-01-25T07:35:43.199Z,53.35
2023-01-25T07:39:58.307Z,54.53
2023-01-25T07:44:10.885Z,53.03
2023-01-25T07:48:26.907Z,51.61
2023-01-25T07:52:41.996Z,51.79
2023-01-25T07:56:54.265Z,51.16
2023-01-25T08:01:17.259Z,50.26
2023-01-25T08:05:29.548Z,49.43
2023-01-25T08:09:42.808Z,50.60
2023-01-25T08:13:55.606Z,50.12
2023-01-25T08:18:07.781Z,49.03
2023-01-25T08:22:19.979Z,49.52
2023-01-25T08:26:32.780Z,48.98
2023-01-25T08:30:56.387Z,48.85
2023-01-25T08:35:10.032Z,46.93
2023-01-25T08:39:22.628Z,47.74
2023-01-25T08:43:35.582Z,47.22
2023-01-25T08:47:47.783Z,45.49
2023-01-25T08:51:59.921Z,45.22
2023-01-25T08:56:15.176Z,46.38
2023-01-25T09:00:27.273Z,46.69
2023-01-25T09:04:39.631Z,44.48
2023-01-25T09:08:51.828Z,45.47
2023-01-25T09:13:04.300Z,44.65
2023-01-25T09:17:16.907Z,44.88
2023-01-25T09:21:30.204Z,44.59
2023-01-25T09:25:42.353Z,44.10
2023-01-25T09:30:02.185Z,43.21
2023-01-25T09:34:26.800Z,42.46
2023-01-25T09:38:39.527Z,42.18
2023-01-25T09:43:21.731Z,43.83
2023-01-25T09:47:45.978Z,40.88
2023-01-25T09:52:24.496Z,43.64
2023-01-25T09:56:38.631Z,42.66
2023-01-25T10:00:58.792Z,41.79
2023-01-25T10:05:23.137Z,44.55
2023-01-25T10:10:06.812Z,48.41
2023-01-25T10:14:21.873Z,50.48
2023-01-25T10:18:52.033Z,49.96
2023-01-25T10:23:27.298Z,52.72
2023-01-25T10:27:45.384Z,53.90
2023-01-25T10:32:35.799Z,53.61
2023-01-25T10:37:04.982Z,45.44
2023-01-25T10:41:39.196Z,45.06
2023-01-25T10:45:52.243Z,44.88
2023-01-25T10:50:04.915Z,44.19
2023-01-25T10:54:17.275Z,44.02
2023-01-25T10:58:32.383Z,44.07
2023-01-25T11:02:46.714Z,43.94
2023-01-25T11:07:00.051Z,43.62
2023-01-25T11:11:24.595Z,44.43
2023-01-25T11:15:36.984Z,45.91
2023-01-25T11:19:49.236Z,46.45
2023-01-25T11:24:09.146Z,45.71
2023-01-25T11:28:24.416Z,46.85
2023-01-25T11:32:39.640Z,46.26
2023-01-25T11:37:34.436Z,48.69
2023-01-25T11:42:12.838Z,46.49
2023-01-25T11:46:43.936Z,48.22
2023-01-25T11:51:01.734Z,50.51
2023-01-25T11:55:31.996Z,54.25
2023-01-25T11:59:48.554Z,56.17
2023-01-25T12:04:33.045Z,57.33
2023-01-25T12:09:01.154Z,59.29
2023-01-25T12:13:39.586Z,53.54
2023-01-25T12:18:11.545Z,47.77
2023-01-25T12:22:46.452Z,47.28
2023-01-25T12:27:07.647Z,46.41
2023-01-25T12:31:23.692Z,46.00
2023-01-25T12:35:45.208Z,46.09
2023-01-25T12:40:14.547Z,45.35
2023-01-25T12:44:35.946Z,46.36
2023-01-25T12:48:53.617Z,46.44
2023-01-25T12:53:12.154Z,46.21
2023-01-25T12:57:45.223Z,45.20
2023-01-25T13:02:30.653Z,45.27
2023-01-25T13:07:13.788Z,46.07
2023-01-25T13:11:43.829Z,46.19
2023-01-25T13:15:56.674Z,45.66
2023-01-25T13:20:44.786Z,47.45
2023-01-25T13:25:11.976Z,47.21
2023-01-25T13:29:35.080Z,46.52
2023-01-25T13:33:47.491Z,46.61
2023-01-25T13:38:24.917Z,46.63
2023-01-25T13:42:39.795Z,48.52
2023-01-25T13:46:51.988Z,46.25
2023-01-25T13:51:10.521Z,46.60
2023-01-25T13:55:22.693Z,46.19
2023-01-25T13:59:34.939Z,46.00
2023-01-25T14:03:53.345Z,46.33
2023-01-25T14:08:13.717Z,46.55
2023-01-25T14:12:40.803Z,46.87
2023-01-25T14:17:21.419Z,47.32
2023-01-25T14:21:34.748Z,46.92
2023-01-25T14:25:51.487Z,47.12
2023-01-25T14:30:06.968Z,49.13
2023-01-25T14:34:20.714Z,52.02
2023-01-25T14:38:38.333Z,54.26
2023-01-25T14:42:53.195Z,56.98
2023-01-25T14:47:33.547Z,59.47
2023-01-25T14:51:47.841Z,59.66
2023-01-25T14:56:00.374Z,60.92
2023-01-25T15:00:23.266Z,63.38
2023-01-25T15:04:36.114Z,61.85
2023-01-25T15:08:49.880Z,61.87
2023-01-25T15:13:17.410Z,62.38
2023-01-25T15:17:47.618Z,65.95
2023-01-25T15:22:01.165Z,64.72
2023-01-25T15:26:30.781Z,64.39
2023-01-25T15:30:43.364Z,63.59
2023-01-25T15:34:55.953Z,63.76
2023-01-25T15:39:18.642Z,64.50
2023-01-25T15:43:31.997Z,64.78
2023-01-25T15:47:44.319Z,65.50
2023-01-25T15:51:58.315Z,65.78
2023-01-25T15:56:17.108Z,66.40
2023-01-25T16:00:29.477Z,66.41
2023-01-25T16:04:42.565Z,65.94
2023-01-25T16:08:55.295Z,67.53
2023-01-25T16:13:13.933Z,68.08
2023-01-25T16:17:30.818Z,66.20
2023-01-25T16:21:44.989Z,66.56
2023-01-25T16:25:57.562Z,66.00
2023-01-25T16:30:18.954Z,61.37
2023-01-25T16:34:31.556Z,58.08
2023-01-25T16:38:44.661Z,54.18
2023-01-25T16:42:57.486Z,52.80
2023-01-25T16:47:14.836Z,53.32
2023-01-25T16:51:29.071Z,51.71
2023-01-25T16:55:41.591Z,50.98
2023-01-25T16:59:56.763Z,51.80
2023-01-25T17:04:09.377Z,51.62
2023-01-25T17:08:21.763Z,57.67
2023-01-25T17:12:34.224Z,64.15
2023-01-25T17:16:51.907Z,66.30
2023-01-25T17:21:07.316Z,67.33
2023-01-25T17:25:22.693Z,66.73
2023-01-25T17:29:35.177Z,67.83
2023-01-25T17:33:48.395Z,64.27
2023-01-25T17:38:03.556Z,66.42
2023-01-25T17:42:16.188Z,64.22
2023-01-25T17:46:33.520Z,64.48
2023-01-25T17:50:46.254Z,58.02
2023-01-25T17:55:00.708Z,57.74
2023-01-25T17:59:13.034Z,57.05
2023-01-25T18:03:25.525Z,55.69
2023-01-25T18:07:39.265Z,52.43
2023-01-25T18:11:51.775Z,51.90
2023-01-25T18:16:08.124Z,50.39
2023-01-25T18:20:22.026Z,51.58
2023-01-25T18:24:36.686Z,51.74
2023-01-25T18:28:52.027Z,50.75
2023-01-25T18:33:05.997Z,51.06
2023-01-25T18:37:21.364Z,51.01
2023-01-25T18:41:33.930Z,50.46
2023-01-25T18:45:53.601Z,49.86
2023-01-25T18:50:07.579Z,48.52
2023-01-25T18:54:20.026Z,48.83
2023-01-25T18:58:34.486Z,48.95
2023-01-25T19:02:47.127Z,48.45
2023-01-25T19:07:01.827Z,49.18
2023-01-25T19:11:17.464Z,48.53
2023-01-25T19:15:30.963Z,47.98
2023-01-25T19:19:45.405Z,49.01
2023-01-25T19:23:58.000Z,47.94
2023-01-25T19:28:10.445Z,47.58
2023-01-25T19:32:22.784Z,49.44
2023-01-25T19:36:37.595Z,49.73
2023-01-25T19:40:50.879Z,49.18
2023-01-25T19:45:04.940Z,49.54
2023-01-25T19:49:18.550Z,51.41
2023-01-25T19:53:30.940Z,50.37
2023-01-25T19:57:43.359Z,50.43
2023-01-25T20:01:55.921Z,50.67
2023-01-25T20:06:09.856Z,50.22
2023-01-25T20:10:22.384Z,49.54
2023-01-25T20:14:35.891Z,49.43
2023-01-25T20:18:49.457Z,49.93
2023-01-25T20:23:01.842Z,50.20
2023-01-25T20:27:14.245Z,49.64
2023-01-25T20:31:34.079Z,49.52
2023-01-25T20:35:46.698Z,50.12
2023-01-25T20:40:03.994Z,49.91
2023-01-25T20:44:18.246Z,48.56
2023-01-25T20:48:36.650Z,49.00
2023-01-25T20:52:49.102Z,50.52
2023-01-25T20:57:01.556Z,48.75
2023-01-25T21:01:16.340Z,48.89
2023-01-25T21:05:28.767Z,49.26
2023-01-25T21:09:42.916Z,49.30
2023-01-25T21:13:55.592Z,48.85
2023-01-25T21:18:08.104Z,49.51
2023-01-25T21:22:21.287Z,50.29
2023-01-25T21:26:36.138Z,49.19
2023-01-25T21:30:48.850Z,49.39
2023-01-25T21:35:01.297Z,49.79
2023-01-25T21:39:13.802Z,49.21
2023-01-25T21:43:26.158Z,49.25
2023-01-25T21:47:38.628Z,50.46
2023-01-25T21:51:53.151Z,50.46
2023-01-25T21:56:05.692Z,49.96
2023-01-25T22:00:18.559Z,48.92
2023-01-25T22:04:36.208Z,49.22
2023-01-25T22:08:48.727Z,49.92
2023-01-25T22:13:01.161Z,50.18
2023-01-25T22:17:14.680Z,49.70
2023-01-25T22:21:30.973Z,50.55
2023-01-25T22:25:43.886Z,49.94
2023-01-25T22:29:56.234Z,49.54
2023-01-25T22:34:11.507Z,49.87
2023-01-25T22:38:23.877Z,50.15
2023-01-25T22:42:36.171Z,49.22
2023-01-25T22:46:50.824Z,49.25
2023-01-25T22:51:10.613Z,49.41
2023-01-25T22:55:22.969Z,51.94
2023-01-25T22:59:35.916Z,49.82
2023-01-25T23:03:49.250Z,49.56
2023-01-25T23:08:05.220Z,51.34
2023-01-25T23:12:18.400Z,50.93
2023-01-25T23:16:31.246Z,50.57
2023-01-25T23:20:44.713Z,50.24
2023-01-25T23:24:59.884Z,48.95
2023-01-25T23:29:13.008Z,50.70
2023-01-25T23:33:26.811Z,56.63
2023-01-25T23:37:39.175Z,58.71
2023-01-25T23:41:52.648Z,58.78
2023-01-25T23:46:08.194Z,58.92
2023-01-25T23:50:20.423Z,59.88
2023-01-25T23:54:33.776Z,58.84
2023-01-25T23:58:47.924Z,62.35
